sensor_id;sensor_type;location;lat;lon;timestamp;P1;durP1;ratioP1;P2;durP2;ratioP2
15116;SDS011;7659;51.038;13.786;2023-07-20T00:01:12;8.15;;;3.50;;
15116;SDS011;7659;51.038;13.786;2023-07-20T00:03:38;8.52;;;3.13;;
15116;SDS011;7659;51.038;13.786;2023-07-20T00:06:04;7.88;;;3.08;;
15116;SDS011;7659;51.038;13.786;2023-07-20T00:08:29;4.85;;;3.20;;
15116;SDS011;7659;51.038;13.786;2023-07-20T00:10:55;5.40;;;3.38;;
15116;SDS011;7659;51.038;13.786;2023-07-20T00:13:20;6.47;;;2.90;;
15116;SDS011;7659;51.038;13.786;2023-07-20T00:15:46;4.93;;;3.35;;
15116;SDS011;7659;51.038;13.786;2023-07-20T00:18:12;5.60;;;2.80;;
15116;SDS011;7659;51.038;13.786;2023-07-20T00:20:37;5.88;;;3.30;;
15116;SDS011;7659;51.038;13.786;2023-07-20T00:23:03;7.88;;;3.33;;
15116;SDS011;7659;51.038;13.786;2023-07-20T00:25:29;10.68;;;2.90;;
15116;SDS011;7659;51.038;13.786;2023-07-20T00:27:54;6.78;;;3.00;;
15116;SDS011;7659;51.038;13.786;2023-07-20T00:30:20;5.43;;;2.60;;
15116;SDS011;7659;51.038;13.786;2023-07-20T00:32:45;5.20;;;2.80;;
15116;SDS011;7659;51.038;13.786;2023-07-20T00:35:11;4.38;;;2.53;;
15116;SDS011;7659;51.038;13.786;2023-07-20T00:37:37;7.75;;;2.78;;
15116;SDS011;7659;51.038;13.786;2023-07-20T00:40:02;4.85;;;2.42;;
15116;SDS011;7659;51.038;13.786;2023-07-20T00:42:30;4.55;;;2.28;;
15116;SDS011;7659;51.038;13.786;2023-07-20T00:44:56;3.85;;;2.30;;
15116;SDS011;7659;51.038;13.786;2023-07-20T00:47:21;8.07;;;2.47;;
15116;SDS011;7659;51.038;13.786;2023-07-20T00:49:47;3.20;;;2.50;;
15116;SDS011;7659;51.038;13.786;2023-07-20T00:52:13;4.50;;;2.53;;
15116;SDS011;7659;51.038;13.786;2023-07-20T00:54:41;5.03;;;2.50;;
15116;SDS011;7659;51.038;13.786;2023-07-20T00:57:07;5.13;;;2.60;;
15116;SDS011;7659;51.038;13.786;2023-07-20T00:59:34;4.10;;;1.67;;
15116;SDS011;7659;51.038;13.786;2023-07-20T01:02:01;3.85;;;2.20;;
15116;SDS011;7659;51.038;13.786;2023-07-20T01:04:27;7.15;;;2.40;;
15116;SDS011;7659;51.038;13.786;2023-07-20T01:07:06;4.95;;;2.10;;
15116;SDS011;7659;51.038;13.786;2023-07-20T01:09:45;3.25;;;2.10;;
15116;SDS011;7659;51.038;13.786;2023-07-20T01:12:26;5.20;;;2.00;;
15116;SDS011;7659;51.038;13.786;2023-07-20T01:14:54;4.85;;;1.60;;
15116;SDS011;7659;51.038;13.786;2023-07-20T01:17:19;3.08;;;1.50;;
15116;SDS011;7659;51.038;13.786;2023-07-20T01:19:45;6.90;;;1.85;;
15116;SDS011;7659;51.038;13.786;2023-07-20T01:24:44;5.47;;;1.65;;
15116;SDS011;7659;51.038;13.786;2023-07-20T01:27:25;2.10;;;1.50;;
15116;SDS011;7659;51.038;13.786;2023-07-20T01:32:27;2.65;;;1.40;;
15116;SDS011;7659;51.038;13.786;2023-07-20T01:34:53;2.78;;;1.45;;
15116;SDS011;7659;51.038;13.786;2023-07-20T01:37:20;2.63;;;1.38;;
15116;SDS011;7659;51.038;13.786;2023-07-20T01:39:50;2.63;;;1.38;;
15116;SDS011;7659;51.038;13.786;2023-07-20T01:42:16;5.95;;;2.20;;
15116;SDS011;7659;51.038;13.786;2023-07-20T01:44:42;7.65;;;1.88;;
15116;SDS011;7659;51.038;13.786;2023-07-20T01:47:07;3.63;;;2.00;;
15116;SDS011;7659;51.038;13.786;2023-07-20T01:49:33;6.30;;;1.67;;
15116;SDS011;7659;51.038;13.786;2023-07-20T01:51:58;4.95;;;1.50;;
15116;SDS011;7659;51.038;13.786;2023-07-20T01:54:24;4.90;;;1.75;;
15116;SDS011;7659;51.038;13.786;2023-07-20T01:56:49;5.05;;;1.92;;
15116;SDS011;7659;51.038;13.786;2023-07-20T01:59:15;3.53;;;1.90;;
15116;SDS011;7659;51.038;13.786;2023-07-20T02:01:41;3.97;;;2.22;;
15116;SDS011;7659;51.038;13.786;2023-07-20T02:04:06;6.53;;;2.25;;
15116;SDS011;7659;51.038;13.786;2023-07-20T02:06:32;5.80;;;2.00;;
15116;SDS011;7659;51.038;13.786;2023-07-20T02:08:57;10.43;;;2.00;;
15116;SDS011;7659;51.038;13.786;2023-07-20T02:11:22;7.05;;;2.47;;
15116;SDS011;7659;51.038;13.786;2023-07-20T02:13:48;4.20;;;2.75;;
15116;SDS011;7659;51.038;13.786;2023-07-20T02:16:14;7.43;;;2.63;;
15116;SDS011;7659;51.038;13.786;2023-07-20T02:18:39;18.23;;;3.70;;
15116;SDS011;7659;51.038;13.786;2023-07-20T02:21:07;5.15;;;3.28;;
15116;SDS011;7659;51.038;13.786;2023-07-20T02:23:32;13.95;;;3.60;;
15116;SDS011;7659;51.038;13.786;2023-07-20T02:25:58;11.93;;;3.80;;
15116;SDS011;7659;51.038;13.786;2023-07-20T02:28:23;9.82;;;3.53;;
15116;SDS011;7659;51.038;13.786;2023-07-20T02:30:49;9.65;;;3.60;;
15116;SDS011;7659;51.038;13.786;2023-07-20T02:33:15;10.10;;;3.50;;
15116;SDS011;7659;51.038;13.786;2023-07-20T02:35:40;7.53;;;4.13;;
15116;SDS011;7659;51.038;13.786;2023-07-20T02:38:07;11.43;;;3.65;;
15116;SDS011;7659;51.038;13.786;2023-07-20T02:40:32;7.47;;;3.85;;
15116;SDS011;7659;51.038;13.786;2023-07-20T02:42:58;8.05;;;3.58;;
15116;SDS011;7659;51.038;13.786;2023-07-20T02:45:23;10.70;;;4.40;;
15116;SDS011;7659;51.038;13.786;2023-07-20T02:47:49;7.97;;;3.13;;
15116;SDS011;7659;51.038;13.786;2023-07-20T02:50:14;9.60;;;3.65;;
15116;SDS011;7659;51.038;13.786;2023-07-20T02:52:40;7.03;;;3.90;;
15116;SDS011;7659;51.038;13.786;2023-07-20T02:55:05;10.88;;;3.90;;
15116;SDS011;7659;51.038;13.786;2023-07-20T02:57:31;8.48;;;4.55;;
15116;SDS011;7659;51.038;13.786;2023-07-20T02:59:56;9.65;;;4.22;;
15116;SDS011;7659;51.038;13.786;2023-07-20T03:02:22;6.18;;;4.03;;
15116;SDS011;7659;51.038;13.786;2023-07-20T03:04:47;12.75;;;4.07;;
15116;SDS011;7659;51.038;13.786;2023-07-20T03:07:13;8.63;;;4.40;;
15116;SDS011;7659;51.038;13.786;2023-07-20T03:09:38;10.80;;;4.60;;
15116;SDS011;7659;51.038;13.786;2023-07-20T03:12:04;9.07;;;4.00;;
15116;SDS011;7659;51.038;13.786;2023-07-20T03:14:30;10.27;;;4.80;;
15116;SDS011;7659;51.038;13.786;2023-07-20T03:16:57;11.68;;;4.20;;
15116;SDS011;7659;51.038;13.786;2023-07-20T03:19:22;8.80;;;4.72;;
15116;SDS011;7659;51.038;13.786;2023-07-20T03:21:47;16.23;;;5.35;;
15116;SDS011;7659;51.038;13.786;2023-07-20T03:24:13;10.20;;;4.32;;
15116;SDS011;7659;51.038;13.786;2023-07-20T03:26:38;11.50;;;4.60;;
15116;SDS011;7659;51.038;13.786;2023-07-20T03:29:05;11.88;;;4.35;;
15116;SDS011;7659;51.038;13.786;2023-07-20T03:31:32;8.95;;;4.68;;
15116;SDS011;7659;51.038;13.786;2023-07-20T03:33:58;12.65;;;4.82;;
15116;SDS011;7659;51.038;13.786;2023-07-20T03:36:23;11.80;;;4.68;;
15116;SDS011;7659;51.038;13.786;2023-07-20T03:38:49;5.45;;;4.03;;
15116;SDS011;7659;51.038;13.786;2023-07-20T03:41:15;6.18;;;4.30;;
15116;SDS011;7659;51.038;13.786;2023-07-20T03:43:41;8.02;;;4.88;;
15116;SDS011;7659;51.038;13.786;2023-07-20T03:46:07;8.23;;;4.32;;
15116;SDS011;7659;51.038;13.786;2023-07-20T03:48:33;11.52;;;4.75;;
15116;SDS011;7659;51.038;13.786;2023-07-20T03:50:58;8.38;;;4.40;;
15116;SDS011;7659;51.038;13.786;2023-07-20T03:53:26;9.38;;;5.15;;
15116;SDS011;7659;51.038;13.786;2023-07-20T03:55:51;10.52;;;4.28;;
15116;SDS011;7659;51.038;13.786;2023-07-20T03:58:18;13.07;;;5.10;;
15116;SDS011;7659;51.038;13.786;2023-07-20T04:00:47;9.68;;;4.20;;
15116;SDS011;7659;51.038;13.786;2023-07-20T04:03:13;11.15;;;4.53;;
15116;SDS011;7659;51.038;13.786;2023-07-20T04:05:39;14.27;;;5.03;;
15116;SDS011;7659;51.038;13.786;2023-07-20T04:08:04;15.40;;;4.65;;
15116;SDS011;7659;51.038;13.786;2023-07-20T04:10:30;9.73;;;4.00;;
15116;SDS011;7659;51.038;13.786;2023-07-20T04:12:55;10.07;;;4.20;;
15116;SDS011;7659;51.038;13.786;2023-07-20T04:15:21;14.10;;;4.70;;
15116;SDS011;7659;51.038;13.786;2023-07-20T04:17:46;12.32;;;4.93;;
15116;SDS011;7659;51.038;13.786;2023-07-20T04:20:12;8.48;;;4.07;;
15116;SDS011;7659;51.038;13.786;2023-07-20T04:22:38;15.82;;;4.38;;
15116;SDS011;7659;51.038;13.786;2023-07-20T04:25:06;8.75;;;4.32;;
15116;SDS011;7659;51.038;13.786;2023-07-20T04:27:32;12.30;;;4.75;;
15116;SDS011;7659;51.038;13.786;2023-07-20T04:29:58;9.98;;;4.20;;
15116;SDS011;7659;51.038;13.786;2023-07-20T04:32:25;13.68;;;4.28;;
15116;SDS011;7659;51.038;13.786;2023-07-20T04:34:51;10.95;;;4.10;;
15116;SDS011;7659;51.038;13.786;2023-07-20T04:37:17;9.35;;;4.03;;
15116;SDS011;7659;51.038;13.786;2023-07-20T04:39:42;7.40;;;3.97;;
15116;SDS011;7659;51.038;13.786;2023-07-20T04:42:10;7.75;;;4.47;;
15116;SDS011;7659;51.038;13.786;2023-07-20T04:44:36;11.80;;;4.93;;
15116;SDS011;7659;51.038;13.786;2023-07-20T04:47:02;10.60;;;4.97;;
15116;SDS011;7659;51.038;13.786;2023-07-20T04:49:31;7.53;;;4.78;;
15116;SDS011;7659;51.038;13.786;2023-07-20T04:51:56;8.93;;;5.00;;
15116;SDS011;7659;51.038;13.786;2023-07-20T04:54:22;10.13;;;5.03;;
15116;SDS011;7659;51.038;13.786;2023-07-20T04:56:48;7.38;;;4.07;;
15116;SDS011;7659;51.038;13.786;2023-07-20T04:59:14;8.65;;;5.07;;
15116;SDS011;7659;51.038;13.786;2023-07-20T05:01:39;8.05;;;5.47;;
15116;SDS011;7659;51.038;13.786;2023-07-20T05:04:05;9.40;;;5.43;;
15116;SDS011;7659;51.038;13.786;2023-07-20T05:06:31;11.05;;;5.20;;
15116;SDS011;7659;51.038;13.786;2023-07-20T05:08:56;14.57;;;5.57;;
15116;SDS011;7659;51.038;13.786;2023-07-20T05:11:22;11.88;;;5.28;;
15116;SDS011;7659;51.038;13.786;2023-07-20T05:13:48;10.65;;;4.82;;
15116;SDS011;7659;51.038;13.786;2023-07-20T05:16:13;8.70;;;5.28;;
15116;SDS011;7659;51.038;13.786;2023-07-20T05:18:40;12.07;;;5.75;;
15116;SDS011;7659;51.038;13.786;2023-07-20T05:21:06;10.77;;;4.85;;
15116;SDS011;7659;51.038;13.786;2023-07-20T05:23:33;11.82;;;5.05;;
15116;SDS011;7659;51.038;13.786;2023-07-20T05:25:59;13.30;;;4.65;;
15116;SDS011;7659;51.038;13.786;2023-07-20T05:28:25;6.55;;;4.45;;
15116;SDS011;7659;51.038;13.786;2023-07-20T05:30:51;10.95;;;5.05;;
15116;SDS011;7659;51.038;13.786;2023-07-20T05:33:20;11.30;;;4.75;;
15116;SDS011;7659;51.038;13.786;2023-07-20T05:35:46;14.05;;;5.05;;
15116;SDS011;7659;51.038;13.786;2023-07-20T05:38:11;11.18;;;5.20;;
15116;SDS011;7659;51.038;13.786;2023-07-20T05:40:37;8.57;;;4.22;;
15116;SDS011;7659;51.038;13.786;2023-07-20T05:43:03;11.35;;;4.60;;
15116;SDS011;7659;51.038;13.786;2023-07-20T05:45:28;10.88;;;4.00;;
15116;SDS011;7659;51.038;13.786;2023-07-20T05:47:54;7.72;;;3.90;;
15116;SDS011;7659;51.038;13.786;2023-07-20T05:50:19;8.93;;;3.63;;
15116;SDS011;7659;51.038;13.786;2023-07-20T05:52:45;17.25;;;4.20;;
15116;SDS011;7659;51.038;13.786;2023-07-20T05:55:10;8.77;;;3.83;;
15116;SDS011;7659;51.038;13.786;2023-07-20T05:57:35;9.05;;;3.55;;
15116;SDS011;7659;51.038;13.786;2023-07-20T06:00:02;10.10;;;3.47;;
15116;SDS011;7659;51.038;13.786;2023-07-20T06:02:47;7.13;;;3.53;;
15116;SDS011;7659;51.038;13.786;2023-07-20T06:05:13;7.90;;;3.97;;
15116;SDS011;7659;51.038;13.786;2023-07-20T06:07:39;14.45;;;4.18;;
15116;SDS011;7659;51.038;13.786;2023-07-20T06:10:05;12.93;;;3.58;;
15116;SDS011;7659;51.038;13.786;2023-07-20T06:12:31;10.30;;;4.20;;
15116;SDS011;7659;51.038;13.786;2023-07-20T06:14:56;10.10;;;3.95;;
15116;SDS011;7659;51.038;13.786;2023-07-20T06:17:22;9.05;;;3.97;;
15116;SDS011;7659;51.038;13.786;2023-07-20T06:19:47;10.80;;;4.28;;
15116;SDS011;7659;51.038;13.786;2023-07-20T06:22:13;9.02;;;4.03;;
15116;SDS011;7659;51.038;13.786;2023-07-20T06:24:38;7.70;;;3.72;;
15116;SDS011;7659;51.038;13.786;2023-07-20T06:27:04;10.95;;;4.28;;
15116;SDS011;7659;51.038;13.786;2023-07-20T06:29:31;14.43;;;4.47;;
15116;SDS011;7659;51.038;13.786;2023-07-20T06:31:56;12.05;;;4.93;;
15116;SDS011;7659;51.038;13.786;2023-07-20T06:34:22;19.83;;;6.80;;
15116;SDS011;7659;51.038;13.786;2023-07-20T06:36:47;14.95;;;4.97;;
15116;SDS011;7659;51.038;13.786;2023-07-20T06:39:12;13.55;;;4.88;;
15116;SDS011;7659;51.038;13.786;2023-07-20T06:41:39;15.90;;;5.10;;
15116;SDS011;7659;51.038;13.786;2023-07-20T06:44:05;10.15;;;5.07;;
15116;SDS011;7659;51.038;13.786;2023-07-20T06:46:30;12.35;;;4.45;;
15116;SDS011;7659;51.038;13.786;2023-07-20T06:48:55;11.32;;;4.53;;
15116;SDS011;7659;51.038;13.786;2023-07-20T06:51:22;13.23;;;5.22;;
15116;SDS011;7659;51.038;13.786;2023-07-20T06:53:47;11.18;;;4.88;;
15116;SDS011;7659;51.038;13.786;2023-07-20T06:56:13;9.32;;;4.15;;
15116;SDS011;7659;51.038;13.786;2023-07-20T06:58:39;12.18;;;4.03;;
15116;SDS011;7659;51.038;13.786;2023-07-20T07:01:05;7.38;;;3.97;;
15116;SDS011;7659;51.038;13.786;2023-07-20T07:03:32;6.63;;;3.95;;
15116;SDS011;7659;51.038;13.786;2023-07-20T07:05:57;7.78;;;4.00;;
15116;SDS011;7659;51.038;13.786;2023-07-20T07:08:23;5.78;;;3.58;;
15116;SDS011;7659;51.038;13.786;2023-07-20T07:10:48;9.88;;;3.90;;
15116;SDS011;7659;51.038;13.786;2023-07-20T07:13:14;10.55;;;3.53;;
15116;SDS011;7659;51.038;13.786;2023-07-20T07:15:39;5.90;;;3.25;;
15116;SDS011;7659;51.038;13.786;2023-07-20T07:18:04;5.97;;;2.30;;
15116;SDS011;7659;51.038;13.786;2023-07-20T07:20:30;7.75;;;3.20;;
15116;SDS011;7659;51.038;13.786;2023-07-20T07:22:56;5.10;;;2.80;;
15116;SDS011;7659;51.038;13.786;2023-07-20T07:25:22;5.07;;;2.95;;
15116;SDS011;7659;51.038;13.786;2023-07-20T07:27:48;7.25;;;2.80;;
15116;SDS011;7659;51.038;13.786;2023-07-20T07:30:13;6.07;;;3.10;;
15116;SDS011;7659;51.038;13.786;2023-07-20T07:32:38;4.75;;;3.20;;
15116;SDS011;7659;51.038;13.786;2023-07-20T07:35:04;11.38;;;3.25;;
15116;SDS011;7659;51.038;13.786;2023-07-20T07:37:30;6.43;;;3.40;;
15116;SDS011;7659;51.038;13.786;2023-07-20T07:39:55;6.97;;;3.20;;
15116;SDS011;7659;51.038;13.786;2023-07-20T07:42:21;6.15;;;3.25;;
15116;SDS011;7659;51.038;13.786;2023-07-20T07:44:47;4.88;;;3.03;;
15116;SDS011;7659;51.038;13.786;2023-07-20T07:47:12;4.90;;;3.17;;
15116;SDS011;7659;51.038;13.786;2023-07-20T07:49:38;5.55;;;3.13;;
15116;SDS011;7659;51.038;13.786;2023-07-20T07:52:03;5.20;;;2.83;;
15116;SDS011;7659;51.038;13.786;2023-07-20T07:54:29;4.07;;;2.67;;
15116;SDS011;7659;51.038;13.786;2023-07-20T07:56:54;6.20;;;2.95;;
15116;SDS011;7659;51.038;13.786;2023-07-20T07:59:20;3.63;;;2.40;;
15116;SDS011;7659;51.038;13.786;2023-07-20T08:01:45;6.85;;;2.80;;
15116;SDS011;7659;51.038;13.786;2023-07-20T08:04:11;3.72;;;2.53;;
15116;SDS011;7659;51.038;13.786;2023-07-20T08:06:36;5.20;;;2.45;;
15116;SDS011;7659;51.038;13.786;2023-07-20T08:09:02;4.22;;;2.80;;
15116;SDS011;7659;51.038;13.786;2023-07-20T08:11:28;5.18;;;2.50;;
15116;SDS011;7659;51.038;13.786;2023-07-20T08:13:56;4.32;;;3.08;;
15116;SDS011;7659;51.038;13.786;2023-07-20T08:16:21;5.47;;;2.88;;
15116;SDS011;7659;51.038;13.786;2023-07-20T08:18:47;5.53;;;3.70;;
15116;SDS011;7659;51.038;13.786;2023-07-20T08:21:12;8.52;;;3.60;;
15116;SDS011;7659;51.038;13.786;2023-07-20T08:23:38;7.55;;;3.70;;
15116;SDS011;7659;51.038;13.786;2023-07-20T08:26:03;5.82;;;3.97;;
15116;SDS011;7659;51.038;13.786;2023-07-20T08:28:29;5.88;;;3.80;;
15116;SDS011;7659;51.038;13.786;2023-07-20T08:30:54;6.40;;;3.60;;
15116;SDS011;7659;51.038;13.786;2023-07-20T08:33:20;9.50;;;3.55;;
15116;SDS011;7659;51.038;13.786;2023-07-20T08:35:45;6.95;;;3.63;;
15116;SDS011;7659;51.038;13.786;2023-07-20T08:38:11;5.38;;;3.45;;
15116;SDS011;7659;51.038;13.786;2023-07-20T08:40:41;5.68;;;3.38;;
15116;SDS011;7659;51.038;13.786;2023-07-20T08:43:07;8.88;;;3.78;;
15116;SDS011;7659;51.038;13.786;2023-07-20T08:45:33;6.63;;;3.88;;
15116;SDS011;7659;51.038;13.786;2023-07-20T08:48:00;5.35;;;3.80;;
15116;SDS011;7659;51.038;13.786;2023-07-20T08:50:26;6.15;;;3.92;;
15116;SDS011;7659;51.038;13.786;2023-07-20T08:52:54;6.55;;;4.00;;
15116;SDS011;7659;51.038;13.786;2023-07-20T08:55:20;5.20;;;4.07;;
15116;SDS011;7659;51.038;13.786;2023-07-20T08:57:47;4.40;;;3.40;;
15116;SDS011;7659;51.038;13.786;2023-07-20T09:00:14;5.00;;;3.40;;
15116;SDS011;7659;51.038;13.786;2023-07-20T09:02:40;5.03;;;3.30;;
15116;SDS011;7659;51.038;13.786;2023-07-20T09:05:07;3.45;;;2.40;;
15116;SDS011;7659;51.038;13.786;2023-07-20T09:07:33;3.30;;;2.60;;
15116;SDS011;7659;51.038;13.786;2023-07-20T09:09:58;5.55;;;2.67;;
15116;SDS011;7659;51.038;13.786;2023-07-20T09:12:24;4.47;;;2.58;;
15116;SDS011;7659;51.038;13.786;2023-07-20T09:14:49;3.85;;;2.58;;
15116;SDS011;7659;51.038;13.786;2023-07-20T09:17:15;3.78;;;2.50;;
15116;SDS011;7659;51.038;13.786;2023-07-20T09:19:47;4.38;;;2.13;;
15116;SDS011;7659;51.038;13.786;2023-07-20T09:22:13;3.95;;;2.30;;
15116;SDS011;7659;51.038;13.786;2023-07-20T09:24:38;6.13;;;2.40;;
15116;SDS011;7659;51.038;13.786;2023-07-20T09:27:04;4.95;;;2.53;;
15116;SDS011;7659;51.038;13.786;2023-07-20T09:29:29;3.38;;;2.40;;
15116;SDS011;7659;51.038;13.786;2023-07-20T09:31:59;4.28;;;2.65;;
15116;SDS011;7659;51.038;13.786;2023-07-20T09:34:26;4.88;;;2.55;;
15116;SDS011;7659;51.038;13.786;2023-07-20T09:36:51;3.30;;;2.20;;
15116;SDS011;7659;51.038;13.786;2023-07-20T09:39:17;3.78;;;2.42;;
15116;SDS011;7659;51.038;13.786;2023-07-20T09:41:43;5.47;;;2.15;;
15116;SDS011;7659;51.038;13.786;2023-07-20T09:44:10;4.20;;;2.03;;
15116;SDS011;7659;51.038;13.786;2023-07-20T09:46:44;3.85;;;2.00;;
15116;SDS011;7659;51.038;13.786;2023-07-20T09:49:09;3.80;;;2.05;;
15116;SDS011;7659;51.038;13.786;2023-07-20T09:51:35;8.80;;;2.25;;
15116;SDS011;7659;51.038;13.786;2023-07-20T09:54:01;5.35;;;2.45;;
15116;SDS011;7659;51.038;13.786;2023-07-20T09:56:28;3.47;;;2.25;;
15116;SDS011;7659;51.038;13.786;2023-07-20T09:58:55;2.00;;;1.70;;
15116;SDS011;7659;51.038;13.786;2023-07-20T10:01:21;3.67;;;1.95;;
15116;SDS011;7659;51.038;13.786;2023-07-20T10:03:47;3.85;;;1.92;;
15116;SDS011;7659;51.038;13.786;2023-07-20T10:06:16;5.07;;;2.78;;
15116;SDS011;7659;51.038;13.786;2023-07-20T10:08:45;4.53;;;2.17;;
15116;SDS011;7659;51.038;13.786;2023-07-20T10:11:12;3.35;;;2.58;;
15116;SDS011;7659;51.038;13.786;2023-07-20T10:13:39;4.45;;;3.28;;
15116;SDS011;7659;51.038;13.786;2023-07-20T10:21:10;6.13;;;4.10;;
15116;SDS011;7659;51.038;13.786;2023-07-20T10:23:36;5.60;;;4.50;;
15116;SDS011;7659;51.038;13.786;2023-07-20T10:26:02;5.55;;;4.45;;
15116;SDS011;7659;51.038;13.786;2023-07-20T10:28:31;5.30;;;4.57;;
15116;SDS011;7659;51.038;13.786;2023-07-20T10:30:56;6.97;;;4.35;;
15116;SDS011;7659;51.038;13.786;2023-07-20T10:33:22;5.97;;;4.25;;
15116;SDS011;7659;51.038;13.786;2023-07-20T10:35:52;6.97;;;4.20;;
15116;SDS011;7659;51.038;13.786;2023-07-20T10:38:17;4.53;;;3.85;;
15116;SDS011;7659;51.038;13.786;2023-07-20T10:40:43;4.78;;;3.10;;
15116;SDS011;7659;51.038;13.786;2023-07-20T10:43:18;4.60;;;3.70;;
15116;SDS011;7659;51.038;13.786;2023-07-20T10:45:51;6.53;;;3.50;;
15116;SDS011;7659;51.038;13.786;2023-07-20T10:48:18;6.28;;;4.07;;
15116;SDS011;7659;51.038;13.786;2023-07-20T10:50:45;4.95;;;3.80;;
15116;SDS011;7659;51.038;13.786;2023-07-20T10:53:14;4.72;;;3.38;;
15116;SDS011;7659;51.038;13.786;2023-07-20T10:55:41;4.32;;;3.03;;
15116;SDS011;7659;51.038;13.786;2023-07-20T10:58:08;3.97;;;3.15;;
15116;SDS011;7659;51.038;13.786;2023-07-20T11:00:35;4.47;;;3.25;;
15116;SDS011;7659;51.038;13.786;2023-07-20T11:03:00;5.03;;;2.80;;
15116;SDS011;7659;51.038;13.786;2023-07-20T11:05:32;5.25;;;2.63;;
15116;SDS011;7659;51.038;13.786;2023-07-20T11:07:59;5.35;;;2.35;;
15116;SDS011;7659;51.038;13.786;2023-07-20T11:10:24;4.50;;;2.30;;
15116;SDS011;7659;51.038;13.786;2023-07-20T11:18:12;5.53;;;3.10;;
15116;SDS011;7659;51.038;13.786;2023-07-20T11:20:38;4.63;;;3.10;;
15116;SDS011;7659;51.038;13.786;2023-07-20T11:23:04;4.13;;;2.88;;
15116;SDS011;7659;51.038;13.786;2023-07-20T11:25:37;2.75;;;2.47;;
15116;SDS011;7659;51.038;13.786;2023-07-20T11:28:05;4.28;;;2.83;;
15116;SDS011;7659;51.038;13.786;2023-07-20T11:30:32;3.35;;;2.35;;
15116;SDS011;7659;51.038;13.786;2023-07-20T11:32:58;3.42;;;3.03;;
15116;SDS011;7659;51.038;13.786;2023-07-20T11:35:23;4.63;;;2.60;;
15116;SDS011;7659;51.038;13.786;2023-07-20T11:37:49;3.53;;;2.72;;
15116;SDS011;7659;51.038;13.786;2023-07-20T11:40:14;5.50;;;2.90;;
15116;SDS011;7659;51.038;13.786;2023-07-20T11:42:40;3.15;;;2.85;;
15116;SDS011;7659;51.038;13.786;2023-07-20T11:45:06;2.67;;;2.33;;
15116;SDS011;7659;51.038;13.786;2023-07-20T11:47:32;3.75;;;2.90;;
15116;SDS011;7659;51.038;13.786;2023-07-20T11:50:02;2.75;;;2.20;;
15116;SDS011;7659;51.038;13.786;2023-07-20T11:52:28;3.60;;;2.35;;
15116;SDS011;7659;51.038;13.786;2023-07-20T11:54:54;3.55;;;2.30;;
15116;SDS011;7659;51.038;13.786;2023-07-20T11:57:20;5.45;;;2.67;;
15116;SDS011;7659;51.038;13.786;2023-07-20T12:00:00;4.18;;;2.10;;
15116;SDS011;7659;51.038;13.786;2023-07-20T12:02:26;3.72;;;2.40;;
15116;SDS011;7659;51.038;13.786;2023-07-20T12:04:52;2.70;;;2.00;;
15116;SDS011;7659;51.038;13.786;2023-07-20T12:07:19;2.95;;;2.30;;
15116;SDS011;7659;51.038;13.786;2023-07-20T12:09:45;3.20;;;2.35;;
15116;SDS011;7659;51.038;13.786;2023-07-20T12:12:11;2.90;;;2.45;;
15116;SDS011;7659;51.038;13.786;2023-07-20T12:14:39;2.15;;;1.98;;
15116;SDS011;7659;51.038;13.786;2023-07-20T12:17:04;2.97;;;2.38;;
15116;SDS011;7659;51.038;13.786;2023-07-20T12:19:37;3.92;;;2.40;;
15116;SDS011;7659;51.038;13.786;2023-07-20T12:22:03;2.58;;;2.38;;
15116;SDS011;7659;51.038;13.786;2023-07-20T12:24:28;3.17;;;2.50;;
15116;SDS011;7659;51.038;13.786;2023-07-20T12:26:57;5.40;;;2.97;;
15116;SDS011;7659;51.038;13.786;2023-07-20T12:29:23;2.70;;;2.38;;
15116;SDS011;7659;51.038;13.786;2023-07-20T12:31:48;3.38;;;2.88;;
15116;SDS011;7659;51.038;13.786;2023-07-20T12:34:14;4.07;;;3.20;;
15116;SDS011;7659;51.038;13.786;2023-07-20T12:36:40;4.53;;;3.53;;
15116;SDS011;7659;51.038;13.786;2023-07-20T12:39:05;4.03;;;3.10;;
15116;SDS011;7659;51.038;13.786;2023-07-20T12:41:31;5.43;;;3.58;;
15116;SDS011;7659;51.038;13.786;2023-07-20T12:43:56;6.13;;;4.13;;
15116;SDS011;7659;51.038;13.786;2023-07-20T12:46:23;5.90;;;4.45;;
15116;SDS011;7659;51.038;13.786;2023-07-20T12:48:49;5.53;;;4.55;;
15116;SDS011;7659;51.038;13.786;2023-07-20T12:51:14;6.80;;;3.80;;
15116;SDS011;7659;51.038;13.786;2023-07-20T12:53:40;7.10;;;4.40;;
15116;SDS011;7659;51.038;13.786;2023-07-20T12:56:05;5.45;;;3.22;;
15116;SDS011;7659;51.038;13.786;2023-07-20T12:58:31;5.13;;;3.20;;
15116;SDS011;7659;51.038;13.786;2023-07-20T13:00:56;3.13;;;2.85;;
15116;SDS011;7659;51.038;13.786;2023-07-20T13:03:22;3.13;;;2.75;;
15116;SDS011;7659;51.038;13.786;2023-07-20T13:05:47;5.25;;;2.63;;
15116;SDS011;7659;51.038;13.786;2023-07-20T13:08:13;3.15;;;2.22;;
15116;SDS011;7659;51.038;13.786;2023-07-20T13:10:39;3.47;;;2.28;;
15116;SDS011;7659;51.038;13.786;2023-07-20T13:13:04;4.90;;;2.45;;
15116;SDS011;7659;51.038;13.786;2023-07-20T13:15:44;3.47;;;2.38;;
15116;SDS011;7659;51.038;13.786;2023-07-20T13:18:11;2.17;;;1.77;;
15116;SDS011;7659;51.038;13.786;2023-07-20T13:20:37;3.72;;;1.80;;
15116;SDS011;7659;51.038;13.786;2023-07-20T13:23:02;2.55;;;2.17;;
15116;SDS011;7659;51.038;13.786;2023-07-20T13:25:28;2.33;;;1.63;;
15116;SDS011;7659;51.038;13.786;2023-07-20T13:27:53;2.08;;;1.90;;
15116;SDS011;7659;51.038;13.786;2023-07-20T13:30:19;4.03;;;1.67;;
15116;SDS011;7659;51.038;13.786;2023-07-20T13:32:46;2.75;;;1.60;;
15116;SDS011;7659;51.038;13.786;2023-07-20T13:35:12;5.45;;;1.90;;
15116;SDS011;7659;51.038;13.786;2023-07-20T13:37:37;3.25;;;1.60;;
15116;SDS011;7659;51.038;13.786;2023-07-20T13:40:03;2.22;;;1.50;;
15116;SDS011;7659;51.038;13.786;2023-07-20T13:42:30;2.92;;;1.67;;
15116;SDS011;7659;51.038;13.786;2023-07-20T13:44:56;2.47;;;1.35;;
15116;SDS011;7659;51.038;13.786;2023-07-20T13:47:21;3.45;;;1.70;;
15116;SDS011;7659;51.038;13.786;2023-07-20T13:49:47;1.92;;;1.58;;
15116;SDS011;7659;51.038;13.786;2023-07-20T13:52:12;3.67;;;1.40;;
15116;SDS011;7659;51.038;13.786;2023-07-20T13:54:38;3.78;;;1.60;;
15116;SDS011;7659;51.038;13.786;2023-07-20T13:57:03;2.22;;;1.45;;
15116;SDS011;7659;51.038;13.786;2023-07-20T13:59:29;2.20;;;1.52;;
15116;SDS011;7659;51.038;13.786;2023-07-20T14:01:54;3.80;;;1.50;;
15116;SDS011;7659;51.038;13.786;2023-07-20T14:04:20;3.22;;;1.63;;
15116;SDS011;7659;51.038;13.786;2023-07-20T14:06:45;4.60;;;1.88;;
15116;SDS011;7659;51.038;13.786;2023-07-20T14:09:12;3.22;;;1.30;;
15116;SDS011;7659;51.038;13.786;2023-07-20T14:11:38;3.85;;;1.40;;
15116;SDS011;7659;51.038;13.786;2023-07-20T14:14:03;2.83;;;1.52;;
15116;SDS011;7659;51.038;13.786;2023-07-20T14:16:29;1.55;;;1.38;;
15116;SDS011;7659;51.038;13.786;2023-07-20T14:18:54;2.85;;;1.08;;
15116;SDS011;7659;51.038;13.786;2023-07-20T14:21:20;4.05;;;1.05;;
15116;SDS011;7659;51.038;13.786;2023-07-20T14:23:49;3.25;;;1.23;;
15116;SDS011;7659;51.038;13.786;2023-07-20T14:26:20;2.70;;;1.13;;
15116;SDS011;7659;51.038;13.786;2023-07-20T14:28:46;1.27;;;1.02;;
15116;SDS011;7659;51.038;13.786;2023-07-20T14:31:12;1.92;;;1.17;;
15116;SDS011;7659;51.038;13.786;2023-07-20T14:33:37;3.10;;;0.90;;
15116;SDS011;7659;51.038;13.786;2023-07-20T14:36:03;2.28;;;1.00;;
15116;SDS011;7659;51.038;13.786;2023-07-20T14:38:30;6.55;;;1.00;;
15116;SDS011;7659;51.038;13.786;2023-07-20T14:40:55;1.30;;;0.80;;
15116;SDS011;7659;51.038;13.786;2023-07-20T14:43:21;2.92;;;0.88;;
15116;SDS011;7659;51.038;13.786;2023-07-20T14:45:46;1.52;;;1.00;;
15116;SDS011;7659;51.038;13.786;2023-07-20T14:48:12;1.45;;;0.93;;
15116;SDS011;7659;51.038;13.786;2023-07-20T14:50:37;2.13;;;1.00;;
15116;SDS011;7659;51.038;13.786;2023-07-20T14:53:03;1.67;;;0.82;;
15116;SDS011;7659;51.038;13.786;2023-07-20T14:55:28;1.23;;;0.93;;